Lehigh Valley International Airport
KABE : now visible

Airfield :











YOU CAN JOIN US ON...

 
LOGIN :

Register | Disclaimer

   EN    FR    IT 

 









Legend :    VFR   Marginal VFR   IFR   Intensive IFR   Very Intensive IFR
Visi :
Ceiling :
>= 8 km
>= 3000ft
5 to 8 km
1000 to 3000 ft
1500m to 5 km
500 to 1000 ft
800 to 1500m
200 to 500 ft
< 800m
< 200 ft
Symbols :   Thunderstorms  Fog  Heavy snow  Heavy precipitations  Wind > 20 kt






- Airport Elevation : 393 ft
- IATA code : ABE


KABE - Lehigh Valley International

CURRENT METAR :
  • 081851Z 35011KT 10SM SCT055 BKN070 22/09 A2955 RMK AO2 SLP004 T02220089 $

EXPIRED METARs :
  • 081751Z 32010G17KT 10SM SCT045 SCT060 21/09 A2956 RMK AO2 SLP008 T02060089 10211 20139 51000 $
  • 081651Z 31006G15KT 10SM FEW043 SCT050 21/10 A2956 RMK AO2 SLP007 T02060100 $

TAF KABE
Valid from the 08 at 18:00 until the 09 at 18:00 UTC


081730Z 0818/0918 31010G17KT P6SM SCT040
FM090000 VRB03KT P6SM FEW250
FM090800 VRB03KT 4SM BR FEW006 BKN150
FM091300 20010KT P6SM VCSH OVC030
FM091600 26018G35KT 4SM SHRA OVC020



MET'MAP, your aeronautical weather chart ! - Copyright ORBIFLY December 2007 - Disclaimer

ORBIFLY MET'MAP TEAM :

Programming & Development : Alexandra Zaïnal
Concept & original design : Baudouin d'Aumeries
Assistance for programming : Marc-Olivier Méhu
Technical & hardware support : Manuel Goepfert

Contact : metmap@orbifly.com




SOURCES & CREDITS :

   NOAA       Earth
Advisory